sensor_id;sensor_type;location;lat;lon;timestamp;P1;durP1;ratioP1;P2;durP2;ratioP2
18360;SDS011;9308;48.550;9.108;2023-04-09T00:01:26;19.70;;;17.80;;
18360;SDS011;9308;48.550;9.108;2023-04-09T00:03:51;19.17;;;17.33;;
18360;SDS011;9308;48.550;9.108;2023-04-09T00:06:17;18.77;;;16.87;;
18360;SDS011;9308;48.550;9.108;2023-04-09T00:08:42;20.20;;;18.20;;
18360;SDS011;9308;48.550;9.108;2023-04-09T00:11:07;18.33;;;16.47;;
18360;SDS011;9308;48.550;9.108;2023-04-09T00:13:33;19.23;;;17.43;;
18360;SDS011;9308;48.550;9.108;2023-04-09T00:15:58;19.97;;;17.87;;
18360;SDS011;9308;48.550;9.108;2023-04-09T00:18:24;19.90;;;17.77;;
18360;SDS011;9308;48.550;9.108;2023-04-09T00:20:49;20.90;;;18.77;;
18360;SDS011;9308;48.550;9.108;2023-04-09T00:23:14;20.97;;;18.87;;
18360;SDS011;9308;48.550;9.108;2023-04-09T00:25:40;20.70;;;18.60;;
18360;SDS011;9308;48.550;9.108;2023-04-09T00:28:05;19.80;;;17.80;;
18360;SDS011;9308;48.550;9.108;2023-04-09T00:30:31;20.70;;;18.63;;
18360;SDS011;9308;48.550;9.108;2023-04-09T00:32:56;19.77;;;17.83;;
18360;SDS011;9308;48.550;9.108;2023-04-09T00:35:22;19.57;;;17.60;;
18360;SDS011;9308;48.550;9.108;2023-04-09T00:37:48;20.37;;;18.37;;
18360;SDS011;9308;48.550;9.108;2023-04-09T00:40:13;19.60;;;17.63;;
18360;SDS011;9308;48.550;9.108;2023-04-09T00:42:39;20.80;;;18.70;;
18360;SDS011;9308;48.550;9.108;2023-04-09T00:45:05;20.67;;;18.70;;
18360;SDS011;9308;48.550;9.108;2023-04-09T00:47:32;20.70;;;18.50;;
18360;SDS011;9308;48.550;9.108;2023-04-09T00:49:59;20.67;;;18.60;;
18360;SDS011;9308;48.550;9.108;2023-04-09T00:52:25;21.63;;;19.50;;
18360;SDS011;9308;48.550;9.108;2023-04-09T00:54:52;19.97;;;18.07;;
18360;SDS011;9308;48.550;9.108;2023-04-09T00:57:18;20.47;;;18.37;;
18360;SDS011;9308;48.550;9.108;2023-04-09T00:59:44;21.00;;;18.90;;
18360;SDS011;9308;48.550;9.108;2023-04-09T01:02:09;19.43;;;17.60;;
18360;SDS011;9308;48.550;9.108;2023-04-09T01:04:35;20.10;;;18.10;;
18360;SDS011;9308;48.550;9.108;2023-04-09T01:10:00;18.60;;;16.90;;
18360;SDS011;9308;48.550;9.108;2023-04-09T01:12:37;21.17;;;19.07;;
18360;SDS011;9308;48.550;9.108;2023-04-09T01:15:16;20.43;;;18.40;;
18360;SDS011;9308;48.550;9.108;2023-04-09T01:17:48;19.40;;;17.50;;
18360;SDS011;9308;48.550;9.108;2023-04-09T01:20:29;19.03;;;16.97;;
18360;SDS011;9308;48.550;9.108;2023-04-09T01:23:11;19.37;;;17.50;;
18360;SDS011;9308;48.550;9.108;2023-04-09T01:25:43;20.33;;;18.40;;
18360;SDS011;9308;48.550;9.108;2023-04-09T01:31:17;26.70;;;18.90;;
18360;SDS011;9308;48.550;9.108;2023-04-09T01:33:44;22.47;;;20.17;;
18360;SDS011;9308;48.550;9.108;2023-04-09T01:36:10;20.03;;;17.93;;
18360;SDS011;9308;48.550;9.108;2023-04-09T01:38:41;23.53;;;20.90;;
18360;SDS011;9308;48.550;9.108;2023-04-09T01:41:08;21.37;;;19.37;;
18360;SDS011;9308;48.550;9.108;2023-04-09T01:43:36;21.50;;;19.23;;
18360;SDS011;9308;48.550;9.108;2023-04-09T01:46:02;22.13;;;18.70;;
18360;SDS011;9308;48.550;9.108;2023-04-09T01:48:28;20.97;;;18.90;;
18360;SDS011;9308;48.550;9.108;2023-04-09T01:50:56;21.13;;;19.13;;
18360;SDS011;9308;48.550;9.108;2023-04-09T01:53:22;20.80;;;18.70;;
18360;SDS011;9308;48.550;9.108;2023-04-09T01:55:48;21.97;;;19.77;;
18360;SDS011;9308;48.550;9.108;2023-04-09T01:58:13;20.97;;;18.80;;
18360;SDS011;9308;48.550;9.108;2023-04-09T02:00:39;22.57;;;20.30;;
18360;SDS011;9308;48.550;9.108;2023-04-09T02:03:17;22.00;;;19.97;;
18360;SDS011;9308;48.550;9.108;2023-04-09T02:05:56;22.13;;;19.77;;
18360;SDS011;9308;48.550;9.108;2023-04-09T02:08:30;22.17;;;19.97;;
18360;SDS011;9308;48.550;9.108;2023-04-09T02:10:59;22.13;;;19.93;;
18360;SDS011;9308;48.550;9.108;2023-04-09T02:13:29;22.30;;;20.10;;
18360;SDS011;9308;48.550;9.108;2023-04-09T02:15:57;22.27;;;20.20;;
18360;SDS011;9308;48.550;9.108;2023-04-09T02:18:25;24.13;;;21.90;;
18360;SDS011;9308;48.550;9.108;2023-04-09T02:20:52;23.83;;;21.50;;
18360;SDS011;9308;48.550;9.108;2023-04-09T02:23:22;22.77;;;20.37;;
18360;SDS011;9308;48.550;9.108;2023-04-09T02:25:47;24.30;;;22.00;;
18360;SDS011;9308;48.550;9.108;2023-04-09T02:28:13;22.10;;;19.80;;
18360;SDS011;9308;48.550;9.108;2023-04-09T02:30:39;23.47;;;21.23;;
18360;SDS011;9308;48.550;9.108;2023-04-09T02:33:05;24.40;;;20.90;;
18360;SDS011;9308;48.550;9.108;2023-04-09T02:35:30;22.80;;;20.60;;
18360;SDS011;9308;48.550;9.108;2023-04-09T02:37:56;21.10;;;19.10;;
18360;SDS011;9308;48.550;9.108;2023-04-09T02:40:21;22.37;;;20.13;;
18360;SDS011;9308;48.550;9.108;2023-04-09T02:42:47;22.17;;;19.83;;
18360;SDS011;9308;48.550;9.108;2023-04-09T02:45:12;23.50;;;19.60;;
18360;SDS011;9308;48.550;9.108;2023-04-09T02:47:38;22.90;;;20.77;;
18360;SDS011;9308;48.550;9.108;2023-04-09T02:50:03;24.77;;;22.07;;
18360;SDS011;9308;48.550;9.108;2023-04-09T02:52:30;23.27;;;20.97;;
18360;SDS011;9308;48.550;9.108;2023-04-09T02:54:55;21.87;;;19.87;;
18360;SDS011;9308;48.550;9.108;2023-04-09T02:57:20;23.93;;;21.47;;
18360;SDS011;9308;48.550;9.108;2023-04-09T02:59:46;24.77;;;22.37;;
18360;SDS011;9308;48.550;9.108;2023-04-09T03:02:11;23.03;;;20.73;;
18360;SDS011;9308;48.550;9.108;2023-04-09T03:04:37;22.00;;;19.90;;
18360;SDS011;9308;48.550;9.108;2023-04-09T03:07:03;21.37;;;19.17;;
18360;SDS011;9308;48.550;9.108;2023-04-09T03:09:28;22.60;;;20.40;;
18360;SDS011;9308;48.550;9.108;2023-04-09T03:11:54;23.30;;;20.90;;
18360;SDS011;9308;48.550;9.108;2023-04-09T03:14:21;24.10;;;21.50;;
18360;SDS011;9308;48.550;9.108;2023-04-09T03:16:47;23.30;;;21.17;;
18360;SDS011;9308;48.550;9.108;2023-04-09T03:19:13;21.50;;;19.40;;
18360;SDS011;9308;48.550;9.108;2023-04-09T03:21:38;22.60;;;20.40;;
18360;SDS011;9308;48.550;9.108;2023-04-09T03:24:04;21.10;;;19.00;;
18360;SDS011;9308;48.550;9.108;2023-04-09T03:26:29;23.90;;;21.40;;
18360;SDS011;9308;48.550;9.108;2023-04-09T03:29:00;22.00;;;19.80;;
18360;SDS011;9308;48.550;9.108;2023-04-09T03:31:26;22.60;;;20.30;;
18360;SDS011;9308;48.550;9.108;2023-04-09T03:33:51;22.27;;;20.17;;
18360;SDS011;9308;48.550;9.108;2023-04-09T03:36:17;21.97;;;19.23;;
18360;SDS011;9308;48.550;9.108;2023-04-09T03:38:42;20.80;;;18.80;;
18360;SDS011;9308;48.550;9.108;2023-04-09T03:41:08;21.00;;;18.90;;
18360;SDS011;9308;48.550;9.108;2023-04-09T03:43:33;22.20;;;19.93;;
18360;SDS011;9308;48.550;9.108;2023-04-09T03:45:58;19.77;;;17.70;;
18360;SDS011;9308;48.550;9.108;2023-04-09T03:48:24;20.53;;;18.30;;
18360;SDS011;9308;48.550;9.108;2023-04-09T03:50:49;19.70;;;17.80;;
18360;SDS011;9308;48.550;9.108;2023-04-09T03:53:15;19.60;;;17.70;;
18360;SDS011;9308;48.550;9.108;2023-04-09T03:55:40;20.07;;;18.03;;
18360;SDS011;9308;48.550;9.108;2023-04-09T03:58:06;19.80;;;17.90;;
18360;SDS011;9308;48.550;9.108;2023-04-09T04:00:31;21.47;;;19.30;;
18360;SDS011;9308;48.550;9.108;2023-04-09T04:02:56;22.37;;;20.10;;
18360;SDS011;9308;48.550;9.108;2023-04-09T04:05:22;20.77;;;18.87;;
18360;SDS011;9308;48.550;9.108;2023-04-09T04:07:49;20.80;;;18.80;;
18360;SDS011;9308;48.550;9.108;2023-04-09T04:10:15;22.77;;;20.57;;
18360;SDS011;9308;48.550;9.108;2023-04-09T04:12:40;23.43;;;21.10;;
18360;SDS011;9308;48.550;9.108;2023-04-09T04:15:06;22.67;;;20.40;;
18360;SDS011;9308;48.550;9.108;2023-04-09T04:17:32;22.80;;;20.13;;
18360;SDS011;9308;48.550;9.108;2023-04-09T04:19:57;23.07;;;20.83;;
18360;SDS011;9308;48.550;9.108;2023-04-09T04:22:23;22.93;;;20.53;;
18360;SDS011;9308;48.550;9.108;2023-04-09T04:24:48;20.80;;;18.90;;
18360;SDS011;9308;48.550;9.108;2023-04-09T04:27:14;23.53;;;21.03;;
18360;SDS011;9308;48.550;9.108;2023-04-09T04:29:39;23.87;;;21.67;;
18360;SDS011;9308;48.550;9.108;2023-04-09T04:32:04;23.13;;;20.60;;
18360;SDS011;9308;48.550;9.108;2023-04-09T04:34:30;23.00;;;20.67;;
18360;SDS011;9308;48.550;9.108;2023-04-09T04:36:55;21.07;;;18.87;;
18360;SDS011;9308;48.550;9.108;2023-04-09T04:39:21;21.03;;;18.90;;
18360;SDS011;9308;48.550;9.108;2023-04-09T04:41:46;21.40;;;19.30;;
18360;SDS011;9308;48.550;9.108;2023-04-09T04:44:12;22.17;;;19.97;;
18360;SDS011;9308;48.550;9.108;2023-04-09T04:46:37;21.70;;;19.60;;
18360;SDS011;9308;48.550;9.108;2023-04-09T04:49:02;23.17;;;20.87;;
18360;SDS011;9308;48.550;9.108;2023-04-09T04:51:29;21.23;;;19.13;;
18360;SDS011;9308;48.550;9.108;2023-04-09T04:53:55;20.97;;;18.77;;
18360;SDS011;9308;48.550;9.108;2023-04-09T04:56:21;24.80;;;22.50;;
18360;SDS011;9308;48.550;9.108;2023-04-09T04:58:46;24.43;;;21.70;;
18360;SDS011;9308;48.550;9.108;2023-04-09T05:01:12;23.50;;;20.97;;
18360;SDS011;9308;48.550;9.108;2023-04-09T05:03:37;23.87;;;21.37;;
18360;SDS011;9308;48.550;9.108;2023-04-09T05:06:03;22.40;;;20.17;;
18360;SDS011;9308;48.550;9.108;2023-04-09T05:08:28;23.10;;;20.70;;
18360;SDS011;9308;48.550;9.108;2023-04-09T05:10:54;22.90;;;19.50;;
18360;SDS011;9308;48.550;9.108;2023-04-09T05:13:20;25.57;;;22.97;;
18360;SDS011;9308;48.550;9.108;2023-04-09T05:15:46;22.70;;;20.40;;
18360;SDS011;9308;48.550;9.108;2023-04-09T05:18:11;24.77;;;22.10;;
18360;SDS011;9308;48.550;9.108;2023-04-09T05:20:37;22.20;;;20.00;;
18360;SDS011;9308;48.550;9.108;2023-04-09T05:23:02;21.23;;;19.03;;
18360;SDS011;9308;48.550;9.108;2023-04-09T05:25:27;21.93;;;19.73;;
18360;SDS011;9308;48.550;9.108;2023-04-09T05:27:53;23.10;;;20.90;;
18360;SDS011;9308;48.550;9.108;2023-04-09T05:30:18;23.67;;;20.70;;
18360;SDS011;9308;48.550;9.108;2023-04-09T05:32:44;23.80;;;21.30;;
18360;SDS011;9308;48.550;9.108;2023-04-09T05:35:10;23.80;;;21.23;;
18360;SDS011;9308;48.550;9.108;2023-04-09T05:37:35;24.03;;;21.53;;
18360;SDS011;9308;48.550;9.108;2023-04-09T05:40:00;23.00;;;20.60;;
18360;SDS011;9308;48.550;9.108;2023-04-09T05:42:26;25.27;;;22.60;;
18360;SDS011;9308;48.550;9.108;2023-04-09T05:44:51;22.87;;;20.37;;
18360;SDS011;9308;48.550;9.108;2023-04-09T05:47:17;23.60;;;21.17;;
18360;SDS011;9308;48.550;9.108;2023-04-09T05:49:42;21.47;;;19.37;;
18360;SDS011;9308;48.550;9.108;2023-04-09T05:52:07;22.97;;;20.77;;
18360;SDS011;9308;48.550;9.108;2023-04-09T05:54:33;25.50;;;23.00;;
18360;SDS011;9308;48.550;9.108;2023-04-09T05:56:59;25.13;;;22.70;;
18360;SDS011;9308;48.550;9.108;2023-04-09T05:59:25;22.00;;;19.70;;
18360;SDS011;9308;48.550;9.108;2023-04-09T06:01:51;22.20;;;20.00;;
18360;SDS011;9308;48.550;9.108;2023-04-09T06:04:16;22.63;;;20.40;;
18360;SDS011;9308;48.550;9.108;2023-04-09T06:06:42;22.63;;;20.33;;
18360;SDS011;9308;48.550;9.108;2023-04-09T06:09:07;22.83;;;20.63;;
18360;SDS011;9308;48.550;9.108;2023-04-09T06:11:32;23.30;;;20.97;;
18360;SDS011;9308;48.550;9.108;2023-04-09T06:13:58;22.57;;;20.17;;
18360;SDS011;9308;48.550;9.108;2023-04-09T06:16:23;21.30;;;19.20;;
18360;SDS011;9308;48.550;9.108;2023-04-09T06:18:49;22.13;;;19.93;;
18360;SDS011;9308;48.550;9.108;2023-04-09T06:21:18;21.93;;;19.73;;
18360;SDS011;9308;48.550;9.108;2023-04-09T06:23:44;21.97;;;19.80;;
18360;SDS011;9308;48.550;9.108;2023-04-09T06:26:09;22.23;;;19.87;;
18360;SDS011;9308;48.550;9.108;2023-04-09T06:28:35;21.50;;;19.40;;
18360;SDS011;9308;48.550;9.108;2023-04-09T06:31:00;20.73;;;18.73;;
18360;SDS011;9308;48.550;9.108;2023-04-09T06:33:26;21.73;;;19.53;;
18360;SDS011;9308;48.550;9.108;2023-04-09T06:35:51;20.77;;;18.67;;
18360;SDS011;9308;48.550;9.108;2023-04-09T06:38:17;22.43;;;20.33;;
18360;SDS011;9308;48.550;9.108;2023-04-09T06:40:43;18.93;;;17.23;;
18360;SDS011;9308;48.550;9.108;2023-04-09T06:43:08;21.40;;;19.30;;
18360;SDS011;9308;48.550;9.108;2023-04-09T06:45:34;19.67;;;17.73;;
18360;SDS011;9308;48.550;9.108;2023-04-09T06:48:00;21.63;;;19.50;;
18360;SDS011;9308;48.550;9.108;2023-04-09T06:50:25;20.60;;;18.60;;
18360;SDS011;9308;48.550;9.108;2023-04-09T06:52:51;21.37;;;19.17;;
18360;SDS011;9308;48.550;9.108;2023-04-09T06:55:18;20.47;;;18.47;;
18360;SDS011;9308;48.550;9.108;2023-04-09T06:57:43;20.57;;;18.23;;
18360;SDS011;9308;48.550;9.108;2023-04-09T07:00:09;19.07;;;17.13;;
18360;SDS011;9308;48.550;9.108;2023-04-09T07:02:35;20.07;;;18.07;;
18360;SDS011;9308;48.550;9.108;2023-04-09T07:05:00;21.77;;;19.40;;
18360;SDS011;9308;48.550;9.108;2023-04-09T07:07:27;21.60;;;19.37;;
18360;SDS011;9308;48.550;9.108;2023-04-09T07:09:52;19.97;;;17.97;;
18360;SDS011;9308;48.550;9.108;2023-04-09T07:14:52;20.90;;;18.70;;
18360;SDS011;9308;48.550;9.108;2023-04-09T07:17:18;19.60;;;17.23;;
18360;SDS011;9308;48.550;9.108;2023-04-09T07:19:43;19.87;;;17.90;;
18360;SDS011;9308;48.550;9.108;2023-04-09T07:22:09;20.60;;;17.83;;
18360;SDS011;9308;48.550;9.108;2023-04-09T07:24:34;19.90;;;17.90;;
18360;SDS011;9308;48.550;9.108;2023-04-09T07:27:02;19.57;;;17.57;;
18360;SDS011;9308;48.550;9.108;2023-04-09T07:29:28;19.13;;;17.13;;
18360;SDS011;9308;48.550;9.108;2023-04-09T07:31:53;18.60;;;16.80;;
18360;SDS011;9308;48.550;9.108;2023-04-09T07:34:19;17.50;;;15.80;;
18360;SDS011;9308;48.550;9.108;2023-04-09T07:36:44;17.47;;;15.67;;
18360;SDS011;9308;48.550;9.108;2023-04-09T07:39:09;18.47;;;16.53;;
18360;SDS011;9308;48.550;9.108;2023-04-09T07:41:35;16.67;;;14.93;;
18360;SDS011;9308;48.550;9.108;2023-04-09T07:44:01;17.90;;;16.20;;
18360;SDS011;9308;48.550;9.108;2023-04-09T07:46:27;18.07;;;16.10;;
18360;SDS011;9308;48.550;9.108;2023-04-09T07:48:53;16.50;;;14.90;;
18360;SDS011;9308;48.550;9.108;2023-04-09T07:51:18;14.73;;;13.23;;
18360;SDS011;9308;48.550;9.108;2023-04-09T07:53:44;13.40;;;12.20;;
18360;SDS011;9308;48.550;9.108;2023-04-09T07:56:09;13.17;;;11.87;;
18360;SDS011;9308;48.550;9.108;2023-04-09T07:58:35;14.53;;;13.03;;
18360;SDS011;9308;48.550;9.108;2023-04-09T08:01:02;14.50;;;13.10;;
18360;SDS011;9308;48.550;9.108;2023-04-09T08:03:27;14.13;;;12.87;;
18360;SDS011;9308;48.550;9.108;2023-04-09T08:05:53;14.17;;;12.77;;
18360;SDS011;9308;48.550;9.108;2023-04-09T08:08:18;12.63;;;11.43;;
18360;SDS011;9308;48.550;9.108;2023-04-09T08:10:44;13.77;;;12.47;;
18360;SDS011;9308;48.550;9.108;2023-04-09T08:13:09;14.13;;;12.80;;
18360;SDS011;9308;48.550;9.108;2023-04-09T08:15:35;13.23;;;12.03;;
18360;SDS011;9308;48.550;9.108;2023-04-09T08:18:00;14.00;;;12.60;;
18360;SDS011;9308;48.550;9.108;2023-04-09T08:20:28;12.93;;;11.63;;
18360;SDS011;9308;48.550;9.108;2023-04-09T08:22:54;13.30;;;12.00;;
18360;SDS011;9308;48.550;9.108;2023-04-09T08:25:20;13.63;;;12.43;;
18360;SDS011;9308;48.550;9.108;2023-04-09T08:27:46;16.80;;;15.10;;
18360;SDS011;9308;48.550;9.108;2023-04-09T08:30:11;12.07;;;10.87;;
18360;SDS011;9308;48.550;9.108;2023-04-09T08:32:37;11.67;;;10.60;;
18360;SDS011;9308;48.550;9.108;2023-04-09T08:35:02;12.63;;;11.43;;
18360;SDS011;9308;48.550;9.108;2023-04-09T08:37:28;12.77;;;11.57;;
18360;SDS011;9308;48.550;9.108;2023-04-09T08:39:53;11.00;;;9.90;;
18360;SDS011;9308;48.550;9.108;2023-04-09T08:42:19;11.60;;;10.50;;
18360;SDS011;9308;48.550;9.108;2023-04-09T08:44:46;10.80;;;9.70;;
18360;SDS011;9308;48.550;9.108;2023-04-09T08:47:12;10.07;;;9.17;;
18360;SDS011;9308;48.550;9.108;2023-04-09T08:49:38;10.17;;;9.10;;
18360;SDS011;9308;48.550;9.108;2023-04-09T08:52:04;11.50;;;10.40;;
18360;SDS011;9308;48.550;9.108;2023-04-09T08:54:30;10.23;;;9.33;;
18360;SDS011;9308;48.550;9.108;2023-04-09T08:56:57;10.90;;;9.93;;
18360;SDS011;9308;48.550;9.108;2023-04-09T08:59:23;10.67;;;9.57;;
18360;SDS011;9308;48.550;9.108;2023-04-09T09:01:48;11.67;;;10.47;;
18360;SDS011;9308;48.550;9.108;2023-04-09T09:04:42;11.20;;;10.20;;
18360;SDS011;9308;48.550;9.108;2023-04-09T09:07:09;12.07;;;10.87;;
18360;SDS011;9308;48.550;9.108;2023-04-09T09:09:49;10.83;;;9.80;;
18360;SDS011;9308;48.550;9.108;2023-04-09T09:15:00;10.40;;;8.93;;
18360;SDS011;9308;48.550;9.108;2023-04-09T09:17:27;9.50;;;8.70;;
18360;SDS011;9308;48.550;9.108;2023-04-09T09:19:52;9.10;;;8.23;;
18360;SDS011;9308;48.550;9.108;2023-04-09T09:22:18;10.23;;;9.40;;
18360;SDS011;9308;48.550;9.108;2023-04-09T09:24:50;8.17;;;7.37;;
18360;SDS011;9308;48.550;9.108;2023-04-09T09:27:35;7.77;;;7.07;;
18360;SDS011;9308;48.550;9.108;2023-04-09T09:30:04;6.80;;;6.20;;
18360;SDS011;9308;48.550;9.108;2023-04-09T09:32:31;6.77;;;6.17;;
18360;SDS011;9308;48.550;9.108;2023-04-09T09:34:59;6.80;;;6.20;;
18360;SDS011;9308;48.550;9.108;2023-04-09T09:37:26;7.17;;;6.47;;
18360;SDS011;9308;48.550;9.108;2023-04-09T09:39:53;6.77;;;6.20;;
18360;SDS011;9308;48.550;9.108;2023-04-09T09:42:19;7.30;;;6.70;;
18360;SDS011;9308;48.550;9.108;2023-04-09T09:44:45;7.00;;;6.40;;
18360;SDS011;9308;48.550;9.108;2023-04-09T09:47:11;8.00;;;7.20;;
18360;SDS011;9308;48.550;9.108;2023-04-09T09:49:39;7.63;;;6.93;;
18360;SDS011;9308;48.550;9.108;2023-04-09T09:52:07;7.87;;;7.07;;
18360;SDS011;9308;48.550;9.108;2023-04-09T09:54:40;8.00;;;7.30;;
18360;SDS011;9308;48.550;9.108;2023-04-09T09:57:08;6.53;;;5.93;;
18360;SDS011;9308;48.550;9.108;2023-04-09T09:59:42;8.10;;;7.30;;
18360;SDS011;9308;48.550;9.108;2023-04-09T10:02:18;7.57;;;6.97;;
18360;SDS011;9308;48.550;9.108;2023-04-09T10:04:47;6.57;;;6.07;;
18360;SDS011;9308;48.550;9.108;2023-04-09T10:07:14;9.83;;;8.77;;
18360;SDS011;9308;48.550;9.108;2023-04-09T10:09:41;10.20;;;9.17;;
18360;SDS011;9308;48.550;9.108;2023-04-09T10:12:12;9.80;;;8.80;;
18360;SDS011;9308;48.550;9.108;2023-04-09T10:14:38;9.70;;;8.80;;
18360;SDS011;9308;48.550;9.108;2023-04-09T10:17:04;10.67;;;9.57;;
18360;SDS011;9308;48.550;9.108;2023-04-09T10:19:30;10.20;;;9.20;;
18360;SDS011;9308;48.550;9.108;2023-04-09T10:22:04;9.10;;;8.30;;
18360;SDS011;9308;48.550;9.108;2023-04-09T10:24:33;11.80;;;10.60;;
18360;SDS011;9308;48.550;9.108;2023-04-09T10:27:12;8.97;;;8.10;;
18360;SDS011;9308;48.550;9.108;2023-04-09T10:29:43;10.83;;;9.77;;
18360;SDS011;9308;48.550;9.108;2023-04-09T10:32:09;11.30;;;10.10;;
18360;SDS011;9308;48.550;9.108;2023-04-09T10:34:39;9.90;;;9.00;;
18360;SDS011;9308;48.550;9.108;2023-04-09T10:37:07;9.90;;;9.00;;
18360;SDS011;9308;48.550;9.108;2023-04-09T10:39:37;10.57;;;9.67;;
18360;SDS011;9308;48.550;9.108;2023-04-09T10:42:07;9.53;;;8.63;;
18360;SDS011;9308;48.550;9.108;2023-04-09T10:44:38;9.90;;;9.00;;
18360;SDS011;9308;48.550;9.108;2023-04-09T10:47:05;10.37;;;9.37;;
18360;SDS011;9308;48.550;9.108;2023-04-09T10:49:36;9.47;;;8.57;;
18360;SDS011;9308;48.550;9.108;2023-04-09T10:52:09;9.03;;;8.20;;
18360;SDS011;9308;48.550;9.108;2023-04-09T10:57:14;8.90;;;8.10;;
18360;SDS011;9308;48.550;9.108;2023-04-09T10:59:46;8.37;;;7.57;;
18360;SDS011;9308;48.550;9.108;2023-04-09T11:02:24;9.00;;;8.30;;
18360;SDS011;9308;48.550;9.108;2023-04-09T11:07:40;9.77;;;8.87;;
18360;SDS011;9308;48.550;9.108;2023-04-09T11:10:09;8.50;;;7.80;;
18360;SDS011;9308;48.550;9.108;2023-04-09T11:12:36;7.80;;;7.10;;
18360;SDS011;9308;48.550;9.108;2023-04-09T11:15:01;8.50;;;7.90;;
18360;SDS011;9308;48.550;9.108;2023-04-09T11:17:27;8.93;;;8.13;;
18360;SDS011;9308;48.550;9.108;2023-04-09T11:19:53;11.23;;;10.23;;
18360;SDS011;9308;48.550;9.108;2023-04-09T11:22:19;9.03;;;8.23;;
18360;SDS011;9308;48.550;9.108;2023-04-09T11:24:45;11.20;;;10.20;;
18360;SDS011;9308;48.550;9.108;2023-04-09T11:27:11;11.30;;;10.30;;
18360;SDS011;9308;48.550;9.108;2023-04-09T11:29:37;9.27;;;8.57;;
18360;SDS011;9308;48.550;9.108;2023-04-09T11:32:03;7.90;;;7.30;;
18360;SDS011;9308;48.550;9.108;2023-04-09T11:34:31;8.80;;;8.00;;
18360;SDS011;9308;48.550;9.108;2023-04-09T11:36:57;9.13;;;8.23;;
18360;SDS011;9308;48.550;9.108;2023-04-09T11:39:26;8.20;;;7.50;;
18360;SDS011;9308;48.550;9.108;2023-04-09T11:41:52;7.27;;;6.67;;
18360;SDS011;9308;48.550;9.108;2023-04-09T11:44:19;6.83;;;6.23;;
18360;SDS011;9308;48.550;9.108;2023-04-09T11:46:45;7.37;;;6.77;;
18360;SDS011;9308;48.550;9.108;2023-04-09T11:49:11;7.27;;;6.57;;
18360;SDS011;9308;48.550;9.108;2023-04-09T11:51:37;7.43;;;6.73;;
18360;SDS011;9308;48.550;9.108;2023-04-09T11:54:06;7.40;;;6.80;;
18360;SDS011;9308;48.550;9.108;2023-04-09T11:56:33;7.83;;;7.13;;
18360;SDS011;9308;48.550;9.108;2023-04-09T11:58:59;7.70;;;7.03;;
18360;SDS011;9308;48.550;9.108;2023-04-09T12:01:29;6.93;;;6.33;;
18360;SDS011;9308;48.550;9.108;2023-04-09T12:03:56;9.40;;;8.50;;
18360;SDS011;9308;48.550;9.108;2023-04-09T12:06:22;7.47;;;6.83;;
18360;SDS011;9308;48.550;9.108;2023-04-09T12:08:52;8.23;;;7.47;;
18360;SDS011;9308;48.550;9.108;2023-04-09T12:11:18;7.50;;;6.80;;
18360;SDS011;9308;48.550;9.108;2023-04-09T12:13:45;7.53;;;6.83;;
18360;SDS011;9308;48.550;9.108;2023-04-09T12:16:11;6.73;;;6.17;;
18360;SDS011;9308;48.550;9.108;2023-04-09T12:18:37;7.87;;;7.27;;
18360;SDS011;9308;48.550;9.108;2023-04-09T12:21:03;7.00;;;6.50;;
18360;SDS011;9308;48.550;9.108;2023-04-09T12:23:29;7.90;;;7.20;;
18360;SDS011;9308;48.550;9.108;2023-04-09T12:25:57;9.60;;;8.80;;
18360;SDS011;9308;48.550;9.108;2023-04-09T12:28:25;7.93;;;7.23;;
18360;SDS011;9308;48.550;9.108;2023-04-09T12:30:51;8.17;;;7.53;;
18360;SDS011;9308;48.550;9.108;2023-04-09T12:33:16;7.73;;;7.03;;
18360;SDS011;9308;48.550;9.108;2023-04-09T12:35:42;8.17;;;7.47;;
18360;SDS011;9308;48.550;9.108;2023-04-09T12:38:07;7.93;;;7.23;;
18360;SDS011;9308;48.550;9.108;2023-04-09T12:40:33;8.00;;;7.30;;
18360;SDS011;9308;48.550;9.108;2023-04-09T12:42:59;8.07;;;7.30;;
18360;SDS011;9308;48.550;9.108;2023-04-09T12:45:25;7.33;;;6.77;;
18360;SDS011;9308;48.550;9.108;2023-04-09T12:47:52;7.73;;;7.17;;
18360;SDS011;9308;48.550;9.108;2023-04-09T12:50:17;7.77;;;7.07;;
18360;SDS011;9308;48.550;9.108;2023-04-09T12:52:43;7.20;;;6.60;;
18360;SDS011;9308;48.550;9.108;2023-04-09T12:55:09;7.27;;;6.67;;
18360;SDS011;9308;48.550;9.108;2023-04-09T12:57:35;6.93;;;6.33;;
18360;SDS011;9308;48.550;9.108;2023-04-09T13:00:02;8.00;;;7.40;;
18360;SDS011;9308;48.550;9.108;2023-04-09T13:02:29;7.30;;;6.70;;
18360;SDS011;9308;48.550;9.108;2023-04-09T13:04:55;7.00;;;6.40;;
18360;SDS011;9308;48.550;9.108;2023-04-09T13:07:21;6.50;;;5.90;;
18360;SDS011;9308;48.550;9.108;2023-04-09T13:09:47;6.83;;;6.33;;
18360;SDS011;9308;48.550;9.108;2023-04-09T13:12:14;5.73;;;5.30;;
18360;SDS011;9308;48.550;9.108;2023-04-09T13:14:41;6.70;;;6.10;;
18360;SDS011;9308;48.550;9.108;2023-04-09T13:17:08;6.00;;;5.60;;
18360;SDS011;9308;48.550;9.108;2023-04-09T13:19:33;6.37;;;5.87;;
18360;SDS011;9308;48.550;9.108;2023-04-09T13:21:59;6.93;;;6.33;;
18360;SDS011;9308;48.550;9.108;2023-04-09T13:24:25;6.10;;;5.60;;
18360;SDS011;9308;48.550;9.108;2023-04-09T13:26:50;6.63;;;6.10;;
18360;SDS011;9308;48.550;9.108;2023-04-09T13:29:16;6.60;;;6.10;;
18360;SDS011;9308;48.550;9.108;2023-04-09T13:31:42;6.60;;;6.10;;
18360;SDS011;9308;48.550;9.108;2023-04-09T13:34:07;6.67;;;6.10;;
18360;SDS011;9308;48.550;9.108;2023-04-09T13:36:33;7.27;;;6.57;;
18360;SDS011;9308;48.550;9.108;2023-04-09T13:38:58;6.33;;;5.77;;
18360;SDS011;9308;48.550;9.108;2023-04-09T13:41:34;6.00;;;5.60;;
18360;SDS011;9308;48.550;9.108;2023-04-09T13:44:00;5.80;;;5.40;;
18360;SDS011;9308;48.550;9.108;2023-04-09T13:46:25;5.43;;;5.03;;
18360;SDS011;9308;48.550;9.108;2023-04-09T13:48:52;6.47;;;5.97;;
18360;SDS011;9308;48.550;9.108;2023-04-09T13:51:19;5.67;;;5.27;;
18360;SDS011;9308;48.550;9.108;2023-04-09T13:53:46;6.50;;;6.10;;
18360;SDS011;9308;48.550;9.108;2023-04-09T13:56:12;6.90;;;6.30;;
18360;SDS011;9308;48.550;9.108;2023-04-09T13:58:38;6.90;;;6.40;;
18360;SDS011;9308;48.550;9.108;2023-04-09T14:01:04;6.67;;;6.20;;
18360;SDS011;9308;48.550;9.108;2023-04-09T14:03:30;6.17;;;5.70;;
18360;SDS011;9308;48.550;9.108;2023-04-09T14:05:56;6.20;;;5.73;;
18360;SDS011;9308;48.550;9.108;2023-04-09T14:08:21;6.43;;;5.93;;
18360;SDS011;9308;48.550;9.108;2023-04-09T14:10:46;6.30;;;5.80;;
18360;SDS011;9308;48.550;9.108;2023-04-09T14:13:12;5.70;;;5.30;;
18360;SDS011;9308;48.550;9.108;2023-04-09T14:15:37;5.40;;;5.00;;
18360;SDS011;9308;48.550;9.108;2023-04-09T14:18:03;6.97;;;6.40;;
18360;SDS011;9308;48.550;9.108;2023-04-09T14:20:28;6.70;;;6.10;;
18360;SDS011;9308;48.550;9.108;2023-04-09T14:22:54;6.40;;;5.90;;
18360;SDS011;9308;48.550;9.108;2023-04-09T14:25:19;6.60;;;6.10;;
18360;SDS011;9308;48.550;9.108;2023-04-09T14:27:45;7.70;;;5.87;;
18360;SDS011;9308;48.550;9.108;2023-04-09T14:30:11;6.20;;;5.60;;
18360;SDS011;9308;48.550;9.108;2023-04-09T14:32:37;6.53;;;5.93;;
18360;SDS011;9308;48.550;9.108;2023-04-09T14:35:03;6.40;;;5.90;;
18360;SDS011;9308;48.550;9.108;2023-04-09T14:37:29;6.17;;;5.67;;
18360;SDS011;9308;48.550;9.108;2023-04-09T14:39:55;6.47;;;5.97;;
18360;SDS011;9308;48.550;9.108;2023-04-09T14:42:20;7.00;;;6.40;;
18360;SDS011;9308;48.550;9.108;2023-04-09T14:44:46;6.50;;;6.00;;
18360;SDS011;9308;48.550;9.108;2023-04-09T14:47:12;6.53;;;6.00;;
18360;SDS011;9308;48.550;9.108;2023-04-09T14:49:37;5.93;;;5.53;;
18360;SDS011;9308;48.550;9.108;2023-04-09T14:52:02;6.90;;;6.40;;
18360;SDS011;9308;48.550;9.108;2023-04-09T14:54:28;6.50;;;5.90;;
18360;SDS011;9308;48.550;9.108;2023-04-09T14:56:55;6.67;;;6.20;;